Rechercher aéroport 
image banner adimage banner adimage banner ad
image banner ad

0PN5 - Nichols

Situé à Spartansburg, United States

ICAO - 0PN5, IATA -

Données fournies par Airmate  

Information générale

Coordonnées: N41°46'45" W79°35'54"
Élévation : 1761 feet MSL.
Variation magnétique : -09° East
Voir autres Aéroports à Pennsylvania

Données opérationnelles

Special qualification required
Heure actuelle UTC:
Heure actuelle locale:
Météo à : KFKL - Venango Rgnl ( 50 km )
METAR: KFKL 131956Z AUTO VRB05KT 10SM CLR 27/18 A2987 RMK AO2 LTG DSNT SW SLP106 T02720183
TAF: KFKL 131720Z 1318/1418 28005KT P6SM VCTS BKN050CB FM132200 32006KT P6SM SCT060 FM140500 00000KT P6SM SCT250 FM141300 29005KT P6SM SCT060
Voir NOTAMs / SUP AIP / TFR affectant cet aéroport [VIEW]
Fréquences de communication: [VIEW]

Pistes:

Identifiant RWYQFULongueur (ft)Largeur (ft)SurfaceLDA (ft)
E2400100GRASS
W2400100GRASS

Coordonnées de l'aéroport

Adresse: Spartansburg United States

Vue satellite de 0PN5